sensor_id;sensor_type;location;lat;lon;timestamp;temperature;humidity
35680;DHT22;21803;53.586;10.040;2023-04-25T04:01:54;20.50;43.40
35680;DHT22;21803;53.586;10.040;2023-04-25T04:04:19;20.50;43.40
35680;DHT22;21803;53.586;10.040;2023-04-25T04:06:45;20.50;43.30
35680;DHT22;21803;53.586;10.040;2023-04-25T04:09:11;21.10;43.60
35680;DHT22;21803;53.586;10.040;2023-04-25T04:11:38;20.50;43.30
35680;DHT22;21803;53.586;10.040;2023-04-25T04:14:05;20.50;43.20
35680;DHT22;21803;53.586;10.040;2023-04-25T04:16:31;20.50;43.20
35680;DHT22;21803;53.586;10.040;2023-04-25T04:18:57;20.50;43.20
35680;DHT22;21803;53.586;10.040;2023-04-25T04:21:23;20.50;43.20
35680;DHT22;21803;53.586;10.040;2023-04-25T04:23:48;20.60;43.20
35680;DHT22;21803;53.586;10.040;2023-04-25T04:26:14;20.50;43.10
35680;DHT22;21803;53.586;10.040;2023-04-25T04:28:42;20.60;43.20
35680;DHT22;21803;53.586;10.040;2023-04-25T04:31:08;20.60;43.10
35680;DHT22;21803;53.586;10.040;2023-04-25T04:33:34;20.50;43.00
35680;DHT22;21803;53.586;10.040;2023-04-25T04:36:00;20.60;43.00
35680;DHT22;21803;53.586;10.040;2023-04-25T04:38:26;20.50;43.00
35680;DHT22;21803;53.586;10.040;2023-04-25T04:40:51;20.60;42.90
35680;DHT22;21803;53.586;10.040;2023-04-25T04:43:17;20.60;43.00
35680;DHT22;21803;53.586;10.040;2023-04-25T04:45:44;20.60;42.90
35680;DHT22;21803;53.586;10.040;2023-04-25T04:48:09;20.60;42.90
35680;DHT22;21803;53.586;10.040;2023-04-25T04:50:37;20.60;42.80
35680;DHT22;21803;53.586;10.040;2023-04-25T04:53:03;20.60;42.80
35680;DHT22;21803;53.586;10.040;2023-04-25T04:55:29;20.60;42.80
35680;DHT22;21803;53.586;10.040;2023-04-25T04:57:55;20.60;42.70
35680;DHT22;21803;53.586;10.040;2023-04-25T05:00:20;20.60;42.70
35680;DHT22;21803;53.586;10.040;2023-04-25T05:02:47;20.60;42.80
35680;DHT22;21803;53.586;10.040;2023-04-25T05:05:12;20.60;42.70
35680;DHT22;21803;53.586;10.040;2023-04-25T05:07:38;20.60;42.80
35680;DHT22;21803;53.586;10.040;2023-04-25T05:10:04;20.60;42.70
35680;DHT22;21803;53.586;10.040;2023-04-25T05:12:30;20.60;42.70
35680;DHT22;21803;53.586;10.040;2023-04-25T05:14:55;20.60;42.60
35680;DHT22;21803;53.586;10.040;2023-04-25T05:17:21;20.60;42.60
35680;DHT22;21803;53.586;10.040;2023-04-25T05:19:46;20.60;42.70
35680;DHT22;21803;53.586;10.040;2023-04-25T05:22:12;20.60;42.60
35680;DHT22;21803;53.586;10.040;2023-04-25T05:24:37;20.60;42.60
35680;DHT22;21803;53.586;10.040;2023-04-25T05:27:03;20.50;43.20
35680;DHT22;21803;53.586;10.040;2023-04-25T05:29:28;20.60;42.60
35680;DHT22;21803;53.586;10.040;2023-04-25T05:31:54;20.60;42.60
35680;DHT22;21803;53.586;10.040;2023-04-25T05:34:19;20.50;42.60
35680;DHT22;21803;53.586;10.040;2023-04-25T05:36:45;20.60;42.60
35680;DHT22;21803;53.586;10.040;2023-04-25T05:39:15;20.50;42.50
35680;DHT22;21803;53.586;10.040;2023-04-25T05:41:40;20.60;42.50
35680;DHT22;21803;53.586;10.040;2023-04-25T05:44:06;20.60;42.60
35680;DHT22;21803;53.586;10.040;2023-04-25T05:46:31;20.50;42.60
35680;DHT22;21803;53.586;10.040;2023-04-25T05:48:57;20.60;42.50
35680;DHT22;21803;53.586;10.040;2023-04-25T05:51:22;20.50;42.40
35680;DHT22;21803;53.586;10.040;2023-04-25T05:53:48;20.60;42.50
35680;DHT22;21803;53.586;10.040;2023-04-25T05:56:13;20.50;42.50
35680;DHT22;21803;53.586;10.040;2023-04-25T05:58:39;20.60;42.50
35680;DHT22;21803;53.586;10.040;2023-04-25T06:01:05;20.50;42.40
35680;DHT22;21803;53.586;10.040;2023-04-25T06:03:30;20.50;42.40
35680;DHT22;21803;53.586;10.040;2023-04-25T06:05:56;20.50;42.40
35680;DHT22;21803;53.586;10.040;2023-04-25T06:08:22;20.50;42.50
35680;DHT22;21803;53.586;10.040;2023-04-25T06:10:47;20.50;42.40
35680;DHT22;21803;53.586;10.040;2023-04-25T06:13:13;20.50;42.50
35680;DHT22;21803;53.586;10.040;2023-04-25T06:15:38;20.60;42.40
35680;DHT22;21803;53.586;10.040;2023-04-25T06:18:04;20.50;42.40
35680;DHT22;21803;53.586;10.040;2023-04-25T06:20:29;20.60;42.40
35680;DHT22;21803;53.586;10.040;2023-04-25T06:22:55;20.60;42.40
35680;DHT22;21803;53.586;10.040;2023-04-25T06:25:20;20.50;42.40
35680;DHT22;21803;53.586;10.040;2023-04-25T06:27:46;20.50;42.40
35680;DHT22;21803;53.586;10.040;2023-04-25T06:30:12;20.50;42.40
35680;DHT22;21803;53.586;10.040;2023-04-25T06:32:38;20.60;42.40
35680;DHT22;21803;53.586;10.040;2023-04-25T06:35:04;20.60;42.40
35680;DHT22;21803;53.586;10.040;2023-04-25T06:37:30;20.60;42.30
35680;DHT22;21803;53.586;10.040;2023-04-25T06:39:56;20.60;42.40
35680;DHT22;21803;53.586;10.040;2023-04-25T06:42:21;20.60;42.40
35680;DHT22;21803;53.586;10.040;2023-04-25T06:44:47;20.60;42.30
35680;DHT22;21803;53.586;10.040;2023-04-25T06:47:13;20.60;42.40
35680;DHT22;21803;53.586;10.040;2023-04-25T06:49:38;20.50;42.20
35680;DHT22;21803;53.586;10.040;2023-04-25T06:52:04;20.60;42.30
35680;DHT22;21803;53.586;10.040;2023-04-25T06:54:29;20.50;42.20
35680;DHT22;21803;53.586;10.040;2023-04-25T06:56:55;20.60;42.30
35680;DHT22;21803;53.586;10.040;2023-04-25T06:59:21;20.60;42.30
35680;DHT22;21803;53.586;10.040;2023-04-25T07:01:47;20.50;42.20
35680;DHT22;21803;53.586;10.040;2023-04-25T07:04:12;20.60;42.20
35680;DHT22;21803;53.586;10.040;2023-04-25T07:06:38;20.60;42.20
35680;DHT22;21803;53.586;10.040;2023-04-25T07:09:08;20.50;42.20
35680;DHT22;21803;53.586;10.040;2023-04-25T07:11:34;20.60;42.20
35680;DHT22;21803;53.586;10.040;2023-04-25T07:13:59;20.60;42.20
35680;DHT22;21803;53.586;10.040;2023-04-25T07:16:25;20.60;42.20
35680;DHT22;21803;53.586;10.040;2023-04-25T07:18:50;20.60;42.10
35680;DHT22;21803;53.586;10.040;2023-04-25T07:21:16;20.60;42.20
35680;DHT22;21803;53.586;10.040;2023-04-25T07:23:41;20.60;42.10
35680;DHT22;21803;53.586;10.040;2023-04-25T07:26:07;20.60;42.10
35680;DHT22;21803;53.586;10.040;2023-04-25T07:28:33;20.60;42.20
35680;DHT22;21803;53.586;10.040;2023-04-25T07:30:58;20.60;42.10
35680;DHT22;21803;53.586;10.040;2023-04-25T07:33:24;20.60;42.20
35680;DHT22;21803;53.586;10.040;2023-04-25T07:35:49;20.60;42.10
35680;DHT22;21803;53.586;10.040;2023-04-25T07:38:15;20.50;42.10
35680;DHT22;21803;53.586;10.040;2023-04-25T07:40:41;20.50;42.10
35680;DHT22;21803;53.586;10.040;2023-04-25T07:43:06;20.60;42.10
35680;DHT22;21803;53.586;10.040;2023-04-25T07:45:32;20.50;42.10
35680;DHT22;21803;53.586;10.040;2023-04-25T07:47:57;20.60;42.10
35680;DHT22;21803;53.586;10.040;2023-04-25T07:50:23;20.60;42.10
35680;DHT22;21803;53.586;10.040;2023-04-25T07:52:49;20.60;42.00
35680;DHT22;21803;53.586;10.040;2023-04-25T07:55:14;20.60;42.10
35680;DHT22;21803;53.586;10.040;2023-04-25T07:57:40;20.60;42.00
35680;DHT22;21803;53.586;10.040;2023-04-25T08:00:06;20.60;42.10
35680;DHT22;21803;53.586;10.040;2023-04-25T08:02:35;20.60;42.00
35680;DHT22;21803;53.586;10.040;2023-04-25T08:05:00;20.60;42.00
35680;DHT22;21803;53.586;10.040;2023-04-25T08:07:26;20.60;42.10
35680;DHT22;21803;53.586;10.040;2023-04-25T08:09:51;20.60;42.00
35680;DHT22;21803;53.586;10.040;2023-04-25T08:12:17;20.60;42.00
35680;DHT22;21803;53.586;10.040;2023-04-25T08:14:43;20.60;42.00
35680;DHT22;21803;53.586;10.040;2023-04-25T08:17:09;20.60;42.00
35680;DHT22;21803;53.586;10.040;2023-04-25T08:19:35;20.60;42.00
35680;DHT22;21803;53.586;10.040;2023-04-25T08:22:00;20.60;41.90
35680;DHT22;21803;53.586;10.040;2023-04-25T08:24:26;20.60;41.90
35680;DHT22;21803;53.586;10.040;2023-04-25T08:26:51;20.60;42.00
35680;DHT22;21803;53.586;10.040;2023-04-25T08:29:17;20.60;42.00
35680;DHT22;21803;53.586;10.040;2023-04-25T08:31:43;20.60;42.00
35680;DHT22;21803;53.586;10.040;2023-04-25T08:34:08;20.60;42.00
35680;DHT22;21803;53.586;10.040;2023-04-25T08:36:35;20.60;42.00
35680;DHT22;21803;53.586;10.040;2023-04-25T08:39:00;20.60;42.00
35680;DHT22;21803;53.586;10.040;2023-04-25T08:41:26;20.60;42.00
35680;DHT22;21803;53.586;10.040;2023-04-25T08:43:53;20.60;42.00
35680;DHT22;21803;53.586;10.040;2023-04-25T08:46:19;20.60;42.00
35680;DHT22;21803;53.586;10.040;2023-04-25T08:48:45;20.60;42.00
35680;DHT22;21803;53.586;10.040;2023-04-25T08:51:20;20.60;41.90
35680;DHT22;21803;53.586;10.040;2023-04-25T08:53:49;20.60;42.00
35680;DHT22;21803;53.586;10.040;2023-04-25T08:56:16;20.60;41.90
35680;DHT22;21803;53.586;10.040;2023-04-25T08:58:44;20.60;41.90
35680;DHT22;21803;53.586;10.040;2023-04-25T09:01:11;20.60;41.90
35680;DHT22;21803;53.586;10.040;2023-04-25T09:03:36;20.60;42.00
35680;DHT22;21803;53.586;10.040;2023-04-25T09:06:03;20.60;42.00
35680;DHT22;21803;53.586;10.040;2023-04-25T09:08:28;20.60;41.90
35680;DHT22;21803;53.586;10.040;2023-04-25T09:10:54;20.60;42.00
35680;DHT22;21803;53.586;10.040;2023-04-25T09:13:27;20.60;42.00
35680;DHT22;21803;53.586;10.040;2023-04-25T09:15:55;20.60;41.90
35680;DHT22;21803;53.586;10.040;2023-04-25T09:18:28;20.70;41.90
35680;DHT22;21803;53.586;10.040;2023-04-25T09:21:09;20.60;41.90
35680;DHT22;21803;53.586;10.040;2023-04-25T09:23:45;20.60;41.90
35680;DHT22;21803;53.586;10.040;2023-04-25T09:26:16;20.60;41.90
35680;DHT22;21803;53.586;10.040;2023-04-25T09:28:42;20.60;41.90
35680;DHT22;21803;53.586;10.040;2023-04-25T09:31:09;20.60;41.90
35680;DHT22;21803;53.586;10.040;2023-04-25T09:33:35;20.60;41.80
35680;DHT22;21803;53.586;10.040;2023-04-25T09:36:08;20.60;41.90
35680;DHT22;21803;53.586;10.040;2023-04-25T09:38:42;20.60;41.90
35680;DHT22;21803;53.586;10.040;2023-04-25T09:41:09;20.60;41.90
35680;DHT22;21803;53.586;10.040;2023-04-25T09:43:35;20.60;41.80
35680;DHT22;21803;53.586;10.040;2023-04-25T09:46:01;20.60;41.80
35680;DHT22;21803;53.586;10.040;2023-04-25T09:48:28;20.60;41.90
35680;DHT22;21803;53.586;10.040;2023-04-25T09:53:28;20.60;41.90
35680;DHT22;21803;53.586;10.040;2023-04-25T09:55:54;20.60;41.90
35680;DHT22;21803;53.586;10.040;2023-04-25T09:58:20;20.60;41.90
35680;DHT22;21803;53.586;10.040;2023-04-25T10:00:47;20.60;41.90
35680;DHT22;21803;53.586;10.040;2023-04-25T10:03:14;20.60;41.90
35680;DHT22;21803;53.586;10.040;2023-04-25T10:05:41;20.60;41.90
35680;DHT22;21803;53.586;10.040;2023-04-25T10:08:07;20.60;41.90
35680;DHT22;21803;53.586;10.040;2023-04-25T10:10:34;20.60;41.90
35680;DHT22;21803;53.586;10.040;2023-04-25T10:13:03;20.60;41.80
35680;DHT22;21803;53.586;10.040;2023-04-25T10:15:29;21.80;42.50
35680;DHT22;21803;53.586;10.040;2023-04-25T10:17:56;22.10;42.50
35680;DHT22;21803;53.586;10.040;2023-04-25T10:20:22;20.60;41.90
35680;DHT22;21803;53.586;10.040;2023-04-25T10:22:47;20.60;41.90
35680;DHT22;21803;53.586;10.040;2023-04-25T10:25:14;20.60;41.90
35680;DHT22;21803;53.586;10.040;2023-04-25T10:27:40;20.60;42.00
35680;DHT22;21803;53.586;10.040;2023-04-25T10:30:13;20.60;41.90
35680;DHT22;21803;53.586;10.040;2023-04-25T10:32:41;20.70;41.90
35680;DHT22;21803;53.586;10.040;2023-04-25T10:35:15;20.60;41.90
35680;DHT22;21803;53.586;10.040;2023-04-25T10:40:25;20.70;41.90
35680;DHT22;21803;53.586;10.040;2023-04-25T10:42:54;20.60;41.80
35680;DHT22;21803;53.586;10.040;2023-04-25T10:45:20;20.70;41.90
35680;DHT22;21803;53.586;10.040;2023-04-25T10:47:46;20.60;41.80
35680;DHT22;21803;53.586;10.040;2023-04-25T10:50:14;20.70;41.90
35680;DHT22;21803;53.586;10.040;2023-04-25T10:52:40;20.60;41.70
35680;DHT22;21803;53.586;10.040;2023-04-25T10:55:06;20.60;41.70
35680;DHT22;21803;53.586;10.040;2023-04-25T10:57:43;20.60;41.70
35680;DHT22;21803;53.586;10.040;2023-04-25T11:02:58;20.60;41.70
35680;DHT22;21803;53.586;10.040;2023-04-25T11:05:33;20.60;41.80
35680;DHT22;21803;53.586;10.040;2023-04-25T11:07:59;20.60;41.80
35680;DHT22;21803;53.586;10.040;2023-04-25T11:10:30;20.60;41.80
35680;DHT22;21803;53.586;10.040;2023-04-25T11:12:57;20.60;41.70
35680;DHT22;21803;53.586;10.040;2023-04-25T11:15:23;20.70;41.90
35680;DHT22;21803;53.586;10.040;2023-04-25T11:17:50;20.60;41.70
35680;DHT22;21803;53.586;10.040;2023-04-25T11:20:16;20.60;41.80
35680;DHT22;21803;53.586;10.040;2023-04-25T11:22:41;20.60;41.70
35680;DHT22;21803;53.586;10.040;2023-04-25T11:25:10;20.60;41.70
35680;DHT22;21803;53.586;10.040;2023-04-25T11:27:53;20.60;41.70
35680;DHT22;21803;53.586;10.040;2023-04-25T11:30:20;20.60;41.70
35680;DHT22;21803;53.586;10.040;2023-04-25T11:32:46;20.60;41.70
35680;DHT22;21803;53.586;10.040;2023-04-25T11:35:12;20.60;41.70
35680;DHT22;21803;53.586;10.040;2023-04-25T11:37:41;20.60;41.70
35680;DHT22;21803;53.586;10.040;2023-04-25T11:40:07;20.60;41.70
35680;DHT22;21803;53.586;10.040;2023-04-25T11:42:38;20.60;41.70
35680;DHT22;21803;53.586;10.040;2023-04-25T11:45:05;20.60;41.70
35680;DHT22;21803;53.586;10.040;2023-04-25T11:47:31;20.60;41.60
35680;DHT22;21803;53.586;10.040;2023-04-25T11:50:01;20.60;41.60
35680;DHT22;21803;53.586;10.040;2023-04-25T11:55:05;20.60;41.70
35680;DHT22;21803;53.586;10.040;2023-04-25T11:57:32;20.60;41.70
35680;DHT22;21803;53.586;10.040;2023-04-25T12:00:06;20.60;41.70
35680;DHT22;21803;53.586;10.040;2023-04-25T12:02:35;20.60;41.60
35680;DHT22;21803;53.586;10.040;2023-04-25T12:05:01;20.60;41.60
35680;DHT22;21803;53.586;10.040;2023-04-25T12:07:30;20.60;41.60
35680;DHT22;21803;53.586;10.040;2023-04-25T12:09:55;20.60;41.60
35680;DHT22;21803;53.586;10.040;2023-04-25T12:12:21;20.60;41.60
35680;DHT22;21803;53.586;10.040;2023-04-25T12:14:47;20.60;41.60
35680;DHT22;21803;53.586;10.040;2023-04-25T12:17:14;20.60;41.60
35680;DHT22;21803;53.586;10.040;2023-04-25T12:19:39;20.70;41.70
35680;DHT22;21803;53.586;10.040;2023-04-25T12:22:23;20.60;41.60
35680;DHT22;21803;53.586;10.040;2023-04-25T12:24:49;20.60;41.50
35680;DHT22;21803;53.586;10.040;2023-04-25T12:27:16;20.60;41.50
35680;DHT22;21803;53.586;10.040;2023-04-25T12:29:51;20.60;41.50
35680;DHT22;21803;53.586;10.040;2023-04-25T12:32:17;20.60;41.60
35680;DHT22;21803;53.586;10.040;2023-04-25T12:34:43;20.60;41.50
35680;DHT22;21803;53.586;10.040;2023-04-25T12:37:09;20.60;41.50
35680;DHT22;21803;53.586;10.040;2023-04-25T12:39:34;20.70;41.60
35680;DHT22;21803;53.586;10.040;2023-04-25T12:42:00;20.60;41.40
35680;DHT22;21803;53.586;10.040;2023-04-25T12:44:26;20.60;41.50
35680;DHT22;21803;53.586;10.040;2023-04-25T12:46:52;20.60;41.50
35680;DHT22;21803;53.586;10.040;2023-04-25T12:49:18;20.60;41.40
35680;DHT22;21803;53.586;10.040;2023-04-25T12:51:43;20.60;41.40
35680;DHT22;21803;53.586;10.040;2023-04-25T12:54:09;20.60;41.40
35680;DHT22;21803;53.586;10.040;2023-04-25T12:56:35;20.70;41.50
35680;DHT22;21803;53.586;10.040;2023-04-25T12:59:01;20.70;41.40
35680;DHT22;21803;53.586;10.040;2023-04-25T13:01:28;20.60;41.30
35680;DHT22;21803;53.586;10.040;2023-04-25T13:03:54;20.70;41.40
35680;DHT22;21803;53.586;10.040;2023-04-25T13:06:20;20.60;41.40
35680;DHT22;21803;53.586;10.040;2023-04-25T13:08:46;20.60;41.30
35680;DHT22;21803;53.586;10.040;2023-04-25T13:11:12;20.60;41.40
35680;DHT22;21803;53.586;10.040;2023-04-25T13:13:38;20.60;41.30
35680;DHT22;21803;53.586;10.040;2023-04-25T13:16:04;20.70;41.30
35680;DHT22;21803;53.586;10.040;2023-04-25T13:18:31;20.60;41.30
35680;DHT22;21803;53.586;10.040;2023-04-25T13:20:57;20.70;41.40
35680;DHT22;21803;53.586;10.040;2023-04-25T13:23:24;20.60;41.30
35680;DHT22;21803;53.586;10.040;2023-04-25T13:25:50;20.70;41.30
35680;DHT22;21803;53.586;10.040;2023-04-25T13:28:15;20.60;41.20
35680;DHT22;21803;53.586;10.040;2023-04-25T13:30:41;20.70;41.30
35680;DHT22;21803;53.586;10.040;2023-04-25T13:33:07;20.70;41.30
35680;DHT22;21803;53.586;10.040;2023-04-25T13:35:34;20.70;41.30
35680;DHT22;21803;53.586;10.040;2023-04-25T13:38:00;20.60;41.30
35680;DHT22;21803;53.586;10.040;2023-04-25T13:40:26;20.60;41.30
35680;DHT22;21803;53.586;10.040;2023-04-25T13:42:52;20.60;41.20
35680;DHT22;21803;53.586;10.040;2023-04-25T13:45:18;20.60;41.20
35680;DHT22;21803;53.586;10.040;2023-04-25T13:47:44;20.60;41.30
35680;DHT22;21803;53.586;10.040;2023-04-25T13:50:10;20.60;41.30
35680;DHT22;21803;53.586;10.040;2023-04-25T13:52:35;20.60;41.30
35680;DHT22;21803;53.586;10.040;2023-04-25T13:55:01;20.60;41.40
35680;DHT22;21803;53.586;10.040;2023-04-25T13:57:32;20.60;41.30
35680;DHT22;21803;53.586;10.040;2023-04-25T13:59:58;20.60;41.40
35680;DHT22;21803;53.586;10.040;2023-04-25T14:02:24;20.60;41.30
35680;DHT22;21803;53.586;10.040;2023-04-25T14:04:50;20.60;41.30
35680;DHT22;21803;53.586;10.040;2023-04-25T14:07:15;20.60;41.40
35680;DHT22;21803;53.586;10.040;2023-04-25T14:09:44;20.60;41.40
35680;DHT22;21803;53.586;10.040;2023-04-25T14:12:10;20.60;41.40
35680;DHT22;21803;53.586;10.040;2023-04-25T14:14:36;20.70;41.40
35680;DHT22;21803;53.586;10.040;2023-04-25T14:17:03;20.60;41.30
35680;DHT22;21803;53.586;10.040;2023-04-25T14:19:29;20.60;41.30
35680;DHT22;21803;53.586;10.040;2023-04-25T14:21:55;20.60;41.30
35680;DHT22;21803;53.586;10.040;2023-04-25T14:24:20;20.70;41.40
35680;DHT22;21803;53.586;10.040;2023-04-25T14:26:46;20.60;41.30
35680;DHT22;21803;53.586;10.040;2023-04-25T14:29:11;20.60;41.30
35680;DHT22;21803;53.586;10.040;2023-04-25T14:31:38;20.60;41.30
35680;DHT22;21803;53.586;10.040;2023-04-25T14:34:04;20.60;41.30
35680;DHT22;21803;53.586;10.040;2023-04-25T14:36:31;20.60;41.40
35680;DHT22;21803;53.586;10.040;2023-04-25T14:38:57;20.60;41.30
35680;DHT22;21803;53.586;10.040;2023-04-25T14:41:23;20.60;41.30
35680;DHT22;21803;53.586;10.040;2023-04-25T14:43:49;20.60;41.30
35680;DHT22;21803;53.586;10.040;2023-04-25T14:46:14;20.60;41.40
35680;DHT22;21803;53.586;10.040;2023-04-25T14:48:40;20.60;41.30
35680;DHT22;21803;53.586;10.040;2023-04-25T14:51:06;20.60;41.40
35680;DHT22;21803;53.586;10.040;2023-04-25T14:53:32;20.60;41.30
35680;DHT22;21803;53.586;10.040;2023-04-25T14:55:57;20.70;41.40
35680;DHT22;21803;53.586;10.040;2023-04-25T14:58:23;20.70;41.40
35680;DHT22;21803;53.586;10.040;2023-04-25T15:00:48;20.60;41.30
35680;DHT22;21803;53.586;10.040;2023-04-25T15:03:14;20.70;41.40
35680;DHT22;21803;53.586;10.040;2023-04-25T15:05:42;20.70;41.40
35680;DHT22;21803;53.586;10.040;2023-04-25T15:08:08;20.60;41.30
35680;DHT22;21803;53.586;10.040;2023-04-25T15:10:34;20.70;41.40
35680;DHT22;21803;53.586;10.040;2023-04-25T15:12:59;20.60;41.30
35680;DHT22;21803;53.586;10.040;2023-04-25T15:15:25;20.60;41.30
35680;DHT22;21803;53.586;10.040;2023-04-25T15:17:53;20.60;41.30
35680;DHT22;21803;53.586;10.040;2023-04-25T15:20:22;20.60;41.30
35680;DHT22;21803;53.586;10.040;2023-04-25T15:22:48;20.60;41.30
35680;DHT22;21803;53.586;10.040;2023-04-25T15:25:15;20.60;41.30
35680;DHT22;21803;53.586;10.040;2023-04-25T15:27:44;20.60;41.20
35680;DHT22;21803;53.586;10.040;2023-04-25T15:30:12;20.60;41.20
35680;DHT22;21803;53.586;10.040;2023-04-25T15:32:40;20.60;41.30
35680;DHT22;21803;53.586;10.040;2023-04-25T15:35:07;20.60;41.20
35680;DHT22;21803;53.586;10.040;2023-04-25T15:37:33;20.60;41.20
35680;DHT22;21803;53.586;10.040;2023-04-25T15:40:08;20.60;41.20
35680;DHT22;21803;53.586;10.040;2023-04-25T15:42:48;20.60;41.20
35680;DHT22;21803;53.586;10.040;2023-04-25T15:45:16;20.60;41.20
35680;DHT22;21803;53.586;10.040;2023-04-25T15:47:42;21.10;41.50
35680;DHT22;21803;53.586;10.040;2023-04-25T15:50:09;20.70;41.30
35680;DHT22;21803;53.586;10.040;2023-04-25T15:52:35;20.60;41.20
35680;DHT22;21803;53.586;10.040;2023-04-25T15:55:01;20.60;41.20
35680;DHT22;21803;53.586;10.040;2023-04-25T15:57:29;20.60;41.20
35680;DHT22;21803;53.586;10.040;2023-04-25T15:59:54;20.60;41.20
35680;DHT22;21803;53.586;10.040;2023-04-25T16:02:20;20.60;41.20
35680;DHT22;21803;53.586;10.040;2023-04-25T16:04:46;20.60;41.20
35680;DHT22;21803;53.586;10.040;2023-04-25T16:07:13;20.60;41.20
35680;DHT22;21803;53.586;10.040;2023-04-25T16:09:38;20.60;41.10
35680;DHT22;21803;53.586;10.040;2023-04-25T16:12:05;20.60;41.10
35680;DHT22;21803;53.586;10.040;2023-04-25T16:14:32;20.60;41.20
35680;DHT22;21803;53.586;10.040;2023-04-25T16:16:58;23.00;42.40
35680;DHT22;21803;53.586;10.040;2023-04-25T16:19:23;21.60;41.70
35680;DHT22;21803;53.586;10.040;2023-04-25T16:21:50;20.60;41.20
35680;DHT22;21803;53.586;10.040;2023-04-25T16:24:16;20.60;41.10
35680;DHT22;21803;53.586;10.040;2023-04-25T16:26:41;20.60;41.20
35680;DHT22;21803;53.586;10.040;2023-04-25T16:29:07;20.60;41.20
35680;DHT22;21803;53.586;10.040;2023-04-25T16:31:33;20.60;41.20
35680;DHT22;21803;53.586;10.040;2023-04-25T16:34:01;20.70;41.20
35680;DHT22;21803;53.586;10.040;2023-04-25T16:36:26;20.60;41.20
35680;DHT22;21803;53.586;10.040;2023-04-25T16:38:52;20.60;41.20
35680;DHT22;21803;53.586;10.040;2023-04-25T16:41:18;20.60;41.10
35680;DHT22;21803;53.586;10.040;2023-04-25T16:43:43;20.60;41.10
35680;DHT22;21803;53.586;10.040;2023-04-25T16:46:09;20.60;41.20
35680;DHT22;21803;53.586;10.040;2023-04-25T16:48:35;20.60;41.30
35680;DHT22;21803;53.586;10.040;2023-04-25T16:51:00;20.60;41.20
35680;DHT22;21803;53.586;10.040;2023-04-25T16:53:26;20.60;41.20
35680;DHT22;21803;53.586;10.040;2023-04-25T16:55:52;20.60;41.20
35680;DHT22;21803;53.586;10.040;2023-04-25T16:58:18;20.60;41.20
35680;DHT22;21803;53.586;10.040;2023-04-25T17:00:43;20.60;41.20
35680;DHT22;21803;53.586;10.040;2023-04-25T17:03:09;20.60;41.30
35680;DHT22;21803;53.586;10.040;2023-04-25T17:05:35;20.60;41.20
35680;DHT22;21803;53.586;10.040;2023-04-25T17:08:01;20.60;41.20
35680;DHT22;21803;53.586;10.040;2023-04-25T17:10:27;20.70;41.20
35680;DHT22;21803;53.586;10.040;2023-04-25T17:12:52;20.60;41.10
35680;DHT22;21803;53.586;10.040;2023-04-25T17:15:18;20.60;41.20
35680;DHT22;21803;53.586;10.040;2023-04-25T17:17:44;20.60;41.20
35680;DHT22;21803;53.586;10.040;2023-04-25T17:20:10;20.60;41.20
35680;DHT22;21803;53.586;10.040;2023-04-25T17:22:36;20.60;41.20
35680;DHT22;21803;53.586;10.040;2023-04-25T17:25:06;20.60;41.20
35680;DHT22;21803;53.586;10.040;2023-04-25T17:27:32;20.60;41.20
35680;DHT22;21803;53.586;10.040;2023-04-25T17:29:58;20.60;41.20
35680;DHT22;21803;53.586;10.040;2023-04-25T17:32:24;20.60;41.20
35680;DHT22;21803;53.586;10.040;2023-04-25T17:34:50;20.60;41.20
35680;DHT22;21803;53.586;10.040;2023-04-25T17:37:16;20.60;41.20
35680;DHT22;21803;53.586;10.040;2023-04-25T17:39:43;20.60;41.20
35680;DHT22;21803;53.586;10.040;2023-04-25T17:42:09;20.60;41.20
35680;DHT22;21803;53.586;10.040;2023-04-25T17:44:35;20.60;41.20
35680;DHT22;21803;53.586;10.040;2023-04-25T17:47:00;20.60;41.20
35680;DHT22;21803;53.586;10.040;2023-04-25T17:49:26;20.60;41.20
35680;DHT22;21803;53.586;10.040;2023-04-25T17:51:52;20.60;41.20
35680;DHT22;21803;53.586;10.040;2023-04-25T17:54:17;20.60;41.10
35680;DHT22;21803;53.586;10.040;2023-04-25T17:56:46;20.60;41.20
35680;DHT22;21803;53.586;10.040;2023-04-25T17:59:12;20.60;41.10
35680;DHT22;21803;53.586;10.040;2023-04-25T18:01:38;20.60;41.10
35680;DHT22;21803;53.586;10.040;2023-04-25T18:04:04;20.60;41.10
35680;DHT22;21803;53.586;10.040;2023-04-25T18:06:30;20.60;41.10
35680;DHT22;21803;53.586;10.040;2023-04-25T18:08:57;20.60;41.10
35680;DHT22;21803;53.586;10.040;2023-04-25T18:11:23;20.50;41.00
35680;DHT22;21803;53.586;10.040;2023-04-25T18:13:49;20.60;41.10
35680;DHT22;21803;53.586;10.040;2023-04-25T18:16:14;20.60;41.10
35680;DHT22;21803;53.586;10.040;2023-04-25T18:18:40;20.50;41.00
35680;DHT22;21803;53.586;10.040;2023-04-25T18:21:08;20.60;41.10
35680;DHT22;21803;53.586;10.040;2023-04-25T18:23:34;20.50;41.00
35680;DHT22;21803;53.586;10.040;2023-04-25T18:26:00;20.60;41.10
35680;DHT22;21803;53.586;10.040;2023-04-25T18:28:26;20.60;41.10
35680;DHT22;21803;53.586;10.040;2023-04-25T18:30:52;20.60;41.10
35680;DHT22;21803;53.586;10.040;2023-04-25T18:33:19;20.50;40.90
35680;DHT22;21803;53.586;10.040;2023-04-25T18:35:45;20.60;41.00
35680;DHT22;21803;53.586;10.040;2023-04-25T18:38:11;20.60;41.00
35680;DHT22;21803;53.586;10.040;2023-04-25T18:40:37;20.50;40.90
35680;DHT22;21803;53.586;10.040;2023-04-25T18:43:03;20.50;40.90
35680;DHT22;21803;53.586;10.040;2023-04-25T18:45:28;20.50;40.90
35680;DHT22;21803;53.586;10.040;2023-04-25T18:47:54;20.50;40.90
35680;DHT22;21803;53.586;10.040;2023-04-25T18:50:20;20.50;40.90
35680;DHT22;21803;53.586;10.040;2023-04-25T18:52:47;20.50;40.90
35680;DHT22;21803;53.586;10.040;2023-04-25T18:55:13;20.50;40.90
35680;DHT22;21803;53.586;10.040;2023-04-25T18:57:38;20.60;40.90
35680;DHT22;21803;53.586;10.040;2023-04-25T19:00:05;20.50;40.90
35680;DHT22;21803;53.586;10.040;2023-04-25T19:02:33;20.50;40.90
35680;DHT22;21803;53.586;10.040;2023-04-25T19:04:58;20.50;40.90
35680;DHT22;21803;53.586;10.040;2023-04-25T19:07:24;20.50;40.90
35680;DHT22;21803;53.586;10.040;2023-04-25T19:09:52;20.50;40.90
35680;DHT22;21803;53.586;10.040;2023-04-25T19:12:18;20.50;40.80
35680;DHT22;21803;53.586;10.040;2023-04-25T19:14:45;20.50;40.90
35680;DHT22;21803;53.586;10.040;2023-04-25T19:17:10;20.50;40.90
35680;DHT22;21803;53.586;10.040;2023-04-25T19:19:36;20.50;40.90
35680;DHT22;21803;53.586;10.040;2023-04-25T19:22:02;20.50;40.80